Terminal Aerodrome Forecast
Issued by NWS

Home | Current Version | Previous Version | Text Only | Print | Product List | Glossary On
Versions: 1 2 3 4 5 6 7 8 9 10 11 12 13 14 15 16 17 18
000
FTUS44 KJAN 251724
TAFGTR
TAF
KGTR 251724Z 2518/2618 18007KT P6SM SCT250
     FM261100 17011KT P6SM BKN100
     FM261500 17015G21KT P6SM BKN050
     FM261600 17015G21KT P6SM SCT250=

USA.gov is the U.S. government's official web portal to all federal, state and local government web resources and services.